createdAt,value
2018-07-12T00:01:23.435Z,17.10
2018-07-12T00:03:50.555Z,17.20
2018-07-12T00:06:17.692Z,17.10
2018-07-12T00:08:44.828Z,17.00
2018-07-12T00:11:11.964Z,17.00
2018-07-12T00:16:06.509Z,17.00
2018-07-12T00:18:33.632Z,17.10
2018-07-12T00:21:00.772Z,17.10
2018-07-12T00:23:27.919Z,17.10
2018-07-12T00:25:55.049Z,17.10
2018-07-12T00:28:22.184Z,17.20
2018-07-12T00:30:49.379Z,17.10
2018-07-12T00:33:16.507Z,17.10
2018-07-12T00:35:43.647Z,17.10
2018-07-12T00:38:10.788Z,17.00
2018-07-12T00:40:37.915Z,17.00
2018-07-12T00:43:05.049Z,16.90
2018-07-12T00:45:32.180Z,16.90
2018-07-12T00:47:59.316Z,17.00
2018-07-12T00:50:26.452Z,17.00
2018-07-12T00:52:53.584Z,17.00
2018-07-12T00:55:21.576Z,16.90
2018-07-12T00:57:48.715Z,16.80
2018-07-12T01:02:43.265Z,16.80
2018-07-12T01:05:10.391Z,16.80
2018-07-12T01:07:37.525Z,16.70
2018-07-12T01:12:32.060Z,16.70
2018-07-12T01:14:59.206Z,16.70
2018-07-12T01:17:26.335Z,16.70
2018-07-12T01:19:53.472Z,16.70
2018-07-12T01:22:20.608Z,16.70
2018-07-12T01:27:15.125Z,16.90
2018-07-12T01:32:09.641Z,17.00
2018-07-12T01:34:36.773Z,17.10
2018-07-12T01:37:03.927Z,17.20
2018-07-12T01:39:31.065Z,17.10
2018-07-12T01:44:25.600Z,17.20
2018-07-12T01:46:52.732Z,17.30
2018-07-12T01:49:19.868Z,17.30
2018-07-12T01:51:47.060Z,17.50
2018-07-12T01:54:14.197Z,17.50
2018-07-12T01:56:41.335Z,17.30
2018-07-12T01:59:08.489Z,17.20
2018-07-12T02:04:02.986Z,17.10
2018-07-12T02:06:30.128Z,17.20
2018-07-12T02:08:57.260Z,17.20
2018-07-12T02:13:51.792Z,17.10
2018-07-12T02:16:18.924Z,17.00
2018-07-12T02:18:46.056Z,16.90
2018-07-12T02:21:13.212Z,16.80
2018-07-12T02:23:40.335Z,16.70
2018-07-12T02:26:07.472Z,16.60
2018-07-12T02:28:34.616Z,16.50
2018-07-12T02:31:01.761Z,16.50
2018-07-12T02:33:28.897Z,16.50
2018-07-12T02:35:56.041Z,16.60
2018-07-12T02:38:23.220Z,16.60
2018-07-12T02:40:50.588Z,16.60
2018-07-12T02:43:17.732Z,16.60
2018-07-12T02:45:44.870Z,16.70
2018-07-12T02:48:12.005Z,16.60
2018-07-12T02:50:39.154Z,16.60
2018-07-12T02:53:06.296Z,16.70
2018-07-12T02:55:33.428Z,16.60
2018-07-12T02:58:00.568Z,16.60
2018-07-12T03:00:27.697Z,16.50
2018-07-12T03:02:54.833Z,16.40
2018-07-12T03:05:21.964Z,16.30
2018-07-12T03:07:49.109Z,16.20
2018-07-12T03:10:16.274Z,16.20
2018-07-12T03:12:43.413Z,16.10
2018-07-12T03:15:10.533Z,16.10
2018-07-12T03:17:37.673Z,16.10
2018-07-12T03:20:04.808Z,16.10
2018-07-12T03:22:31.935Z,16.00
2018-07-12T03:27:26.476Z,16.00
2018-07-12T03:29:53.605Z,16.10
2018-07-12T03:34:48.176Z,16.10
2018-07-12T03:37:15.311Z,16.00
2018-07-12T03:39:42.479Z,16.00
2018-07-12T03:42:09.619Z,16.00
2018-07-12T03:44:36.756Z,16.00
2018-07-12T03:47:03.931Z,16.00
2018-07-12T03:49:31.028Z,16.10
2018-07-12T03:51:58.172Z,16.10
2018-07-12T03:54:25.301Z,16.10
2018-07-12T03:56:52.432Z,16.20
2018-07-12T03:59:19.569Z,16.30
2018-07-12T04:01:46.706Z,16.40
2018-07-12T04:04:13.828Z,16.50
2018-07-12T04:06:40.976Z,16.50
2018-07-12T04:09:08.113Z,16.50
2018-07-12T04:11:35.244Z,16.50
2018-07-12T04:16:29.769Z,16.60
2018-07-12T04:18:56.891Z,16.50
2018-07-12T04:21:24.031Z,16.60
2018-07-12T04:23:51.156Z,16.60
2018-07-12T04:26:18.289Z,16.50
2018-07-12T04:28:45.435Z,16.50
2018-07-12T04:31:12.581Z,16.50
2018-07-12T04:33:39.724Z,16.50
2018-07-12T04:36:06.868Z,16.50
2018-07-12T04:38:34.009Z,16.60
2018-07-12T04:41:01.144Z,16.50
2018-07-12T04:43:28.289Z,16.50
2018-07-12T04:45:55.424Z,16.50
2018-07-12T04:50:49.955Z,16.60
2018-07-12T04:53:17.092Z,16.70
2018-07-12T04:55:44.232Z,16.80
2018-07-12T04:58:11.445Z,16.90
2018-07-12T05:03:05.920Z,17.00
2018-07-12T05:05:33.059Z,17.10
2018-07-12T05:08:00.233Z,17.20
2018-07-12T05:10:27.393Z,17.20
2018-07-12T05:12:54.517Z,17.20
2018-07-12T05:15:21.648Z,17.40
2018-07-12T05:17:48.796Z,17.40
2018-07-12T05:20:15.916Z,17.40
2018-07-12T05:25:10.437Z,17.30
2018-07-12T05:27:37.589Z,17.30
2018-07-12T05:30:04.892Z,17.40
2018-07-12T05:32:32.024Z,17.40
2018-07-12T05:34:59.167Z,17.40
2018-07-12T05:37:27.224Z,17.50
2018-07-12T05:39:55.277Z,17.60
2018-07-12T05:42:23.308Z,17.60
2018-07-12T05:44:51.380Z,17.50
2018-07-12T05:47:19.445Z,17.50
2018-07-12T05:49:47.469Z,17.60
2018-07-12T05:52:15.502Z,17.70
2018-07-12T05:54:43.524Z,17.70
2018-07-12T05:57:11.559Z,17.90
2018-07-12T05:59:39.588Z,17.90
2018-07-12T06:02:22.426Z,17.90
2018-07-12T06:04:50.686Z,17.90
2018-07-12T06:07:24.253Z,18.10
2018-07-12T06:09:52.448Z,18.10
2018-07-12T06:12:20.782Z,18.10
2018-07-12T06:17:17.126Z,18.00
2018-07-12T06:19:45.374Z,18.10
2018-07-12T06:22:13.628Z,18.10
2018-07-12T06:24:41.715Z,18.20
2018-07-12T06:27:09.689Z,18.40
2018-07-12T06:29:37.800Z,18.30
2018-07-12T06:32:05.982Z,18.10
2018-07-12T06:34:34.105Z,18.10
2018-07-12T06:37:02.261Z,18.10
2018-07-12T06:39:30.305Z,18.10
2018-07-12T06:41:58.347Z,18.20
2018-07-12T06:44:26.388Z,18.20
2018-07-12T06:46:54.407Z,18.20
2018-07-12T06:49:22.457Z,18.40
2018-07-12T06:51:50.479Z,18.40
2018-07-12T06:54:18.564Z,18.20
2018-07-12T06:56:46.644Z,18.10
2018-07-12T06:59:14.753Z,18.00
2018-07-12T07:01:42.785Z,18.00
2018-07-12T07:04:10.808Z,18.00
2018-07-12T07:06:38.856Z,18.10
2018-07-12T07:09:08.324Z,18.00
2018-07-12T07:11:36.345Z,18.00
2018-07-12T07:14:04.387Z,18.10
2018-07-12T07:16:32.432Z,18.20
2018-07-12T07:19:00.477Z,18.30
2018-07-12T07:21:28.537Z,18.40
2018-07-12T07:23:56.580Z,18.60
2018-07-12T07:26:24.676Z,18.80
2018-07-12T07:28:52.762Z,19.00
2018-07-12T07:31:21.208Z,19.20
2018-07-12T07:33:49.371Z,19.40
2018-07-12T07:36:17.693Z,19.50
2018-07-12T07:38:45.754Z,19.60
2018-07-12T07:41:13.765Z,19.70
2018-07-12T07:43:41.800Z,19.70
2018-07-12T07:46:09.836Z,19.80
2018-07-12T07:48:37.898Z,19.80
2018-07-12T07:51:06.148Z,19.80
2018-07-12T07:56:02.022Z,19.80
2018-07-12T07:58:30.046Z,19.90
2018-07-12T08:00:58.073Z,20.10
2018-07-12T08:03:26.153Z,20.20
2018-07-12T08:05:54.158Z,20.20
2018-07-12T08:08:22.191Z,20.20
2018-07-12T08:10:50.233Z,20.40
2018-07-12T08:13:18.266Z,20.50
2018-07-12T08:15:46.295Z,20.60
2018-07-12T08:18:14.358Z,20.70
2018-07-12T08:20:42.436Z,20.80
2018-07-12T08:23:10.452Z,20.80
2018-07-12T08:25:38.478Z,20.80
2018-07-12T08:28:18.112Z,20.90
2018-07-12T08:30:46.217Z,21.00
2018-07-12T08:33:14.250Z,21.20
2018-07-12T08:35:42.256Z,21.40
2018-07-12T08:40:38.186Z,21.50
2018-07-12T08:43:06.137Z,21.50
2018-07-12T08:45:34.162Z,21.70
2018-07-12T08:50:30.021Z,21.70
2018-07-12T08:52:58.232Z,21.70
2018-07-12T08:55:26.404Z,21.70
2018-07-12T08:57:54.445Z,21.80
2018-07-12T09:00:22.492Z,22.00
2018-07-12T09:02:50.593Z,22.00
2018-07-12T09:05:18.551Z,22.10
2018-07-12T09:07:46.565Z,22.20
2018-07-12T09:10:14.921Z,22.30
2018-07-12T09:12:43.098Z,22.40
2018-07-12T09:15:11.377Z,22.30
2018-07-12T09:17:39.404Z,22.40
2018-07-12T09:20:07.608Z,22.50
2018-07-12T09:22:35.629Z,22.60
2018-07-12T09:27:31.808Z,22.70
2018-07-12T09:30:00.010Z,22.80
2018-07-12T09:32:28.585Z,22.90
2018-07-12T09:34:56.679Z,23.00
2018-07-12T09:37:24.737Z,23.10
2018-07-12T09:39:52.771Z,23.30
2018-07-12T09:42:20.814Z,23.50
2018-07-12T09:47:16.689Z,23.80
2018-07-12T09:49:44.721Z,23.70
2018-07-12T09:52:18.172Z,23.70
2018-07-12T09:54:46.188Z,23.60
2018-07-12T09:57:26.091Z,23.70
2018-07-12T09:59:54.517Z,23.70
2018-07-12T10:02:28.639Z,23.70
2018-07-12T10:04:57.083Z,23.70
2018-07-12T10:07:30.787Z,23.70
2018-07-12T10:09:59.224Z,23.70
2018-07-12T10:12:32.778Z,23.90
2018-07-12T10:15:06.420Z,24.00
2018-07-12T10:17:41.711Z,24.10
2018-07-12T10:20:09.788Z,24.10
2018-07-12T10:22:37.837Z,24.20
2018-07-12T10:25:06.421Z,24.30
2018-07-12T10:27:34.460Z,24.40
2018-07-12T10:30:02.504Z,24.30
2018-07-12T10:32:30.553Z,24.30
2018-07-12T10:34:58.600Z,24.40
2018-07-12T10:37:26.628Z,24.60
2018-07-12T10:39:54.685Z,24.70
2018-07-12T10:42:22.732Z,24.80
2018-07-12T10:47:18.604Z,24.70
2018-07-12T10:49:46.643Z,24.90
2018-07-12T10:52:14.692Z,25.00
2018-07-12T10:54:42.733Z,25.20
2018-07-12T10:57:10.792Z,25.20
2018-07-12T10:59:38.826Z,25.20
2018-07-12T11:04:34.751Z,25.00
2018-07-12T11:07:02.702Z,25.10
2018-07-12T11:09:30.732Z,25.20
2018-07-12T11:11:58.801Z,25.40
2018-07-12T11:14:26.873Z,25.50
2018-07-12T11:16:54.888Z,25.50
2018-07-12T11:19:22.906Z,25.60
2018-07-12T11:21:50.918Z,25.60
2018-07-12T11:24:18.991Z,25.70
2018-07-12T11:26:47.038Z,25.80
2018-07-12T11:29:15.065Z,25.90
2018-07-12T11:31:43.109Z,25.70
2018-07-12T11:34:11.232Z,25.60
2018-07-12T11:36:39.281Z,25.50
2018-07-12T11:39:07.763Z,25.30
2018-07-12T11:41:35.816Z,25.20
2018-07-12T11:44:03.847Z,25.20
2018-07-12T11:46:31.873Z,25.00
2018-07-12T11:48:59.884Z,24.90
2018-07-12T11:51:27.920Z,24.90
2018-07-12T11:53:55.948Z,24.90
2018-07-12T11:56:23.980Z,24.90
2018-07-12T11:58:52.025Z,24.80
2018-07-12T12:01:20.071Z,24.80
2018-07-12T12:03:48.108Z,24.70
2018-07-12T12:06:16.148Z,24.50
2018-07-12T12:08:44.180Z,24.20
2018-07-12T12:11:12.211Z,24.00
2018-07-12T12:13:40.248Z,24.00
2018-07-12T12:16:08.284Z,24.00
2018-07-12T12:18:36.328Z,24.20
2018-07-12T12:21:04.377Z,24.20
2018-07-12T12:23:32.437Z,24.30
2018-07-12T12:26:00.512Z,24.40
2018-07-12T12:28:28.583Z,24.40
2018-07-12T12:30:56.627Z,24.50
2018-07-12T12:33:24.714Z,24.50
2018-07-12T12:35:52.703Z,24.60
2018-07-12T12:38:20.736Z,24.60
2018-07-12T12:40:48.768Z,24.60
2018-07-12T12:43:16.776Z,24.60
2018-07-12T12:45:44.804Z,24.80
2018-07-12T12:48:12.828Z,24.70
2018-07-12T12:50:40.852Z,24.90
2018-07-12T12:53:08.879Z,24.90
2018-07-12T12:55:36.895Z,24.90
2018-07-12T12:58:04.973Z,24.90
2018-07-12T13:00:33.000Z,24.70
2018-07-12T13:03:01.033Z,24.70
2018-07-12T13:05:29.061Z,24.50
2018-07-12T13:07:57.102Z,24.50
2018-07-12T13:10:25.099Z,24.50
2018-07-12T13:12:53.144Z,24.50
2018-07-12T13:15:21.177Z,24.50
2018-07-12T13:17:49.201Z,24.50
2018-07-12T13:20:17.232Z,24.30
2018-07-12T13:22:45.277Z,24.30
2018-07-12T13:25:13.308Z,24.20
2018-07-12T13:27:41.589Z,24.10
2018-07-12T13:30:09.544Z,24.10
2018-07-12T13:32:37.584Z,24.10
2018-07-12T13:35:05.775Z,24.10
2018-07-12T13:37:33.809Z,23.90
2018-07-12T13:40:01.836Z,23.90
2018-07-12T13:42:30.466Z,23.90
2018-07-12T13:44:58.496Z,23.90
2018-07-12T13:47:26.532Z,23.80
2018-07-12T13:49:54.600Z,23.70
2018-07-12T13:52:22.632Z,23.80
2018-07-12T13:54:50.673Z,23.80
2018-07-12T13:57:18.709Z,23.90
2018-07-12T13:59:46.747Z,23.90
2018-07-12T14:04:42.612Z,23.90
2018-07-12T14:07:10.632Z,23.90
2018-07-12T14:09:38.652Z,24.00
2018-07-12T14:12:06.803Z,24.00
2018-07-12T14:14:34.823Z,24.10
2018-07-12T14:17:02.862Z,24.30
2018-07-12T14:19:30.886Z,24.30
2018-07-12T14:21:58.911Z,24.30
2018-07-12T14:24:26.957Z,24.30
2018-07-12T14:26:54.995Z,24.30
2018-07-12T14:29:23.036Z,24.20
2018-07-12T14:31:51.068Z,24.00
2018-07-12T14:34:19.113Z,24.00
2018-07-12T14:36:47.137Z,24.00
2018-07-12T14:39:15.164Z,23.90
2018-07-12T14:44:11.007Z,23.90
2018-07-12T14:49:06.882Z,23.70
2018-07-12T14:51:34.957Z,23.70
2018-07-12T14:54:03.309Z,23.80
2018-07-12T14:56:31.342Z,23.90
2018-07-12T14:58:59.376Z,24.00
2018-07-12T15:01:27.423Z,24.20
2018-07-12T15:03:55.441Z,24.40
2018-07-12T15:06:23.465Z,24.60
2018-07-12T15:08:51.592Z,24.70
2018-07-12T15:11:19.573Z,24.80
2018-07-12T15:13:47.692Z,24.90
2018-07-12T15:16:15.716Z,24.90
2018-07-12T15:23:39.856Z,24.60
2018-07-12T15:26:07.914Z,24.40
2018-07-12T15:28:35.924Z,24.20
2018-07-12T15:31:03.976Z,24.10
2018-07-12T15:33:32.015Z,23.80
2018-07-12T15:36:00.120Z,23.60
2018-07-12T15:38:28.133Z,23.70
2018-07-12T15:40:56.209Z,23.80
2018-07-12T15:45:52.100Z,24.10
2018-07-12T15:48:20.125Z,24.90
2018-07-12T15:50:48.208Z,25.30
2018-07-12T15:53:16.221Z,25.80
2018-07-12T15:55:44.325Z,26.10
2018-07-12T15:58:12.341Z,26.20
2018-07-12T16:00:40.372Z,25.70
2018-07-12T16:03:08.399Z,25.00
2018-07-12T16:05:36.416Z,24.50
2018-07-12T16:13:00.142Z,23.40
2018-07-12T16:15:28.184Z,23.30
2018-07-12T16:17:56.220Z,23.30
2018-07-12T16:20:24.248Z,23.20
2018-07-12T16:22:52.264Z,23.20
2018-07-12T16:25:20.288Z,23.10
2018-07-12T16:27:48.308Z,23.00
2018-07-12T16:30:16.348Z,23.00
2018-07-12T16:32:44.384Z,23.00
2018-07-12T16:35:12.416Z,22.90
2018-07-12T16:37:40.569Z,22.80
2018-07-12T16:40:08.593Z,22.70
2018-07-12T16:42:36.609Z,22.60
2018-07-12T16:45:04.680Z,22.60
2018-07-12T16:47:32.696Z,22.70
2018-07-12T16:50:00.718Z,23.10
2018-07-12T16:52:28.732Z,23.60
2018-07-12T16:57:24.596Z,25.10
2018-07-12T16:59:52.636Z,25.30
2018-07-12T17:04:48.625Z,25.30
2018-07-12T17:07:16.712Z,25.20
2018-07-12T17:09:44.744Z,25.00
2018-07-12T17:12:12.804Z,24.90
2018-07-12T17:14:40.850Z,25.00
2018-07-12T17:17:08.888Z,25.40
2018-07-12T17:19:36.937Z,25.60
2018-07-12T17:22:04.993Z,25.70
2018-07-12T17:24:33.048Z,25.70
2018-07-12T17:27:01.098Z,25.40
2018-07-12T17:29:29.217Z,25.50
2018-07-12T17:31:57.273Z,25.50
2018-07-12T17:34:25.333Z,25.60
2018-07-12T17:36:53.390Z,25.50
2018-07-12T17:39:21.524Z,25.30
2018-07-12T17:41:49.697Z,25.10
2018-07-12T17:44:17.740Z,25.00
2018-07-12T17:46:45.796Z,25.00
2018-07-12T17:49:13.830Z,25.10
2018-07-12T17:51:41.872Z,25.10
2018-07-12T17:54:09.918Z,25.10
2018-07-12T17:56:37.945Z,24.90
2018-07-12T17:59:05.978Z,24.50
2018-07-12T18:01:34.014Z,24.30
2018-07-12T18:04:02.049Z,24.00
2018-07-12T18:06:30.101Z,23.90
2018-07-12T18:08:58.140Z,23.60
2018-07-12T18:11:26.199Z,23.50
2018-07-12T18:13:54.232Z,23.50
2018-07-12T18:16:22.274Z,23.40
2018-07-12T18:18:50.552Z,23.20
2018-07-12T18:21:19.228Z,23.10
2018-07-12T18:23:47.314Z,23.00
2018-07-12T18:26:16.432Z,22.80
2018-07-12T18:28:44.476Z,22.60
2018-07-12T18:31:12.626Z,22.50
2018-07-12T18:33:40.661Z,22.50
2018-07-12T18:36:08.720Z,22.30
2018-07-12T18:38:36.764Z,22.10
2018-07-12T18:41:04.803Z,21.90
2018-07-12T18:43:32.873Z,21.70
2018-07-12T18:48:28.700Z,21.30
2018-07-12T18:50:56.756Z,21.20
2018-07-12T18:53:24.806Z,21.10
2018-07-12T18:58:20.816Z,20.70
2018-07-12T19:00:48.917Z,20.50
2018-07-12T19:05:44.884Z,20.10
2018-07-12T19:08:13.851Z,19.80
2018-07-12T19:10:41.907Z,19.60
2018-07-12T19:13:09.934Z,19.40
2018-07-12T19:15:38.056Z,19.30
2018-07-12T19:18:06.106Z,19.20
2018-07-12T19:20:34.156Z,19.00
2018-07-12T19:23:02.205Z,19.00
2018-07-12T19:25:30.252Z,18.90
2018-07-12T19:27:58.300Z,18.90
2018-07-12T19:30:26.328Z,18.80
2018-07-12T19:32:54.384Z,18.70
2018-07-12T19:35:22.433Z,18.60
2018-07-12T19:37:50.496Z,18.60
2018-07-12T19:40:18.551Z,18.40
2018-07-12T19:42:46.600Z,18.30
2018-07-12T19:45:14.650Z,18.20
2018-07-12T19:47:42.691Z,18.00
2018-07-12T19:50:10.741Z,17.90
2018-07-12T19:52:38.788Z,17.80
2018-07-12T19:55:06.894Z,17.70
2018-07-12T19:57:35.013Z,17.70
2018-07-12T20:00:03.000Z,17.70
2018-07-12T20:02:31.049Z,17.70
2018-07-12T20:04:59.081Z,17.70
2018-07-12T20:07:27.147Z,17.60
2018-07-12T20:09:55.183Z,17.50
2018-07-12T20:12:23.208Z,17.40
2018-07-12T20:14:51.235Z,17.40
2018-07-12T20:17:19.305Z,17.30
2018-07-12T20:19:47.328Z,17.20
2018-07-12T20:22:15.398Z,17.10
2018-07-12T20:24:43.473Z,17.10
2018-07-12T20:27:11.475Z,17.10
2018-07-12T20:29:39.509Z,17.00
2018-07-12T20:32:07.566Z,17.00
2018-07-12T20:34:35.614Z,16.90
2018-07-12T20:37:03.660Z,16.80
2018-07-12T20:39:31.696Z,16.70
2018-07-12T20:41:59.756Z,16.60
2018-07-12T20:44:27.799Z,16.60
2018-07-12T20:49:23.678Z,16.60
2018-07-12T20:51:51.720Z,16.50
2018-07-12T20:54:19.780Z,16.50
2018-07-12T20:56:47.791Z,16.50
2018-07-12T20:59:15.856Z,16.50
2018-07-12T21:01:43.888Z,16.50
2018-07-12T21:04:11.949Z,16.40
2018-07-12T21:09:08.777Z,16.30
2018-07-12T21:11:36.835Z,16.20
2018-07-12T21:14:04.902Z,16.20
2018-07-12T21:16:32.937Z,16.10
2018-07-12T21:19:01.018Z,16.10
2018-07-12T21:21:29.076Z,16.10
2018-07-12T21:23:57.148Z,16.10
2018-07-12T21:26:25.184Z,16.10
2018-07-12T21:28:53.253Z,16.10
2018-07-12T21:31:21.328Z,16.10
2018-07-12T21:33:49.371Z,16.00
2018-07-12T21:36:17.436Z,16.00
2018-07-12T21:38:45.464Z,16.00
2018-07-12T21:41:13.544Z,16.10
2018-07-12T21:43:41.633Z,16.10
2018-07-12T21:46:09.697Z,16.10
2018-07-12T21:48:37.760Z,16.20
2018-07-12T21:51:05.825Z,16.20
2018-07-12T21:53:33.873Z,16.10
2018-07-12T21:58:29.820Z,16.10
2018-07-12T22:00:57.940Z,16.00
2018-07-12T22:03:25.981Z,16.00
2018-07-12T22:05:54.000Z,16.00
2018-07-12T22:08:29.244Z,16.00
2018-07-12T22:10:59.560Z,16.00
2018-07-12T22:13:28.473Z,15.90
2018-07-12T22:15:56.577Z,15.90
2018-07-12T22:18:24.621Z,15.90
2018-07-12T22:23:20.632Z,15.90
2018-07-12T22:25:48.707Z,15.90
2018-07-12T22:28:16.724Z,15.90
2018-07-12T22:30:44.852Z,15.80
2018-07-12T22:33:12.877Z,15.80
2018-07-12T22:35:40.948Z,15.80
2018-07-12T22:38:08.976Z,15.80
2018-07-12T22:43:04.883Z,15.80
2018-07-12T22:45:32.927Z,15.90
2018-07-12T22:48:01.005Z,15.80
2018-07-12T22:52:56.819Z,15.80
2018-07-12T22:55:24.848Z,15.90
2018-07-12T22:57:52.896Z,15.90
2018-07-12T23:00:20.924Z,15.90
2018-07-12T23:02:48.983Z,15.90
2018-07-12T23:05:17.027Z,15.80
2018-07-12T23:07:45.057Z,15.90
2018-07-12T23:10:13.092Z,15.90
2018-07-12T23:12:41.149Z,15.90
2018-07-12T23:17:37.087Z,15.80
2018-07-12T23:20:05.114Z,15.90
2018-07-12T23:22:33.171Z,15.90
2018-07-12T23:25:01.208Z,16.00
2018-07-12T23:27:29.236Z,15.90
2018-07-12T23:29:57.288Z,15.90
2018-07-12T23:32:25.332Z,15.80
2018-07-12T23:34:53.384Z,15.80
2018-07-12T23:37:21.421Z,15.80
2018-07-12T23:39:49.469Z,15.80
2018-07-12T23:42:17.499Z,15.80
2018-07-12T23:44:45.551Z,15.80
2018-07-12T23:49:41.429Z,15.80
2018-07-12T23:52:09.480Z,15.80
2018-07-12T23:54:37.523Z,15.80
2018-07-12T23:57:05.561Z,15.80
2018-07-12T23:59:33.624Z,15.80
